Time;durP1;ratioP1;P1;durP2;ratioP2;P2;SDS_P1;SDS_P2;PMS_P1;PMS_P2;Temp;Humidity;BMP_temperature;BMP_pressure;BME280_temperature;BME280_humidity;BME280_pressure;Samples;Min_cycle;Max_cycle;Signal;HPM_P1;HPM_P2
2024/04/23 00:02:35;;;;;;;4.72;3.03;;;23.30;43.70;;;;;;6579635;26;82237;-59
2024/04/23 00:05:36;;;;;;;4.65;3.28;;;23.30;43.50;;;;;;6587452;26;84616;-59
2024/04/23 00:08:36;;;;;;;4.50;2.92;;;23.30;43.40;;;;;;6574447;26;78602;-59
2024/04/23 00:11:37;;;;;;;5.72;3.13;;;23.30;43.50;;;;;;6600706;26;79536;-58
2024/04/23 00:14:37;;;;;;;4.22;2.88;;;23.20;43.60;;;;;;6600564;26;79119;-58
2024/04/23 00:17:38;;;;;;;4.68;2.95;;;23.20;43.70;;;;;;6546939;26;83572;-59
2024/04/23 00:20:38;;;;;;;4.28;3.15;;;23.30;43.60;;;;;;6573487;26;81007;-64
2024/04/23 00:23:39;;;;;;;4.57;3.15;;;23.30;43.50;;;;;;6574160;26;80259;-64
2024/04/23 00:26:40;;;;;;;6.30;3.80;;;23.20;43.30;;;;;;6555181;26;80140;-64
2024/04/23 00:29:40;;;;;;;6.72;4.28;;;23.30;43.10;;;;;;6615104;26;80799;-64
2024/04/23 00:32:41;;;;;;;5.07;4.03;;;23.30;43.00;;;;;;6584462;26;78881;-64
2024/04/23 00:35:41;;;;;;;6.03;4.47;;;23.20;43.00;;;;;;6573710;26;79295;-63
2024/04/23 00:38:42;;;;;;;7.45;4.28;;;23.20;43.00;;;;;;6565547;26;84132;-58
2024/04/23 00:41:42;;;;;;;6.43;4.20;;;23.20;43.00;;;;;;6559896;26;81834;-57
2024/04/23 00:44:43;;;;;;;6.80;4.00;;;23.20;43.10;;;;;;6547913;26;78744;-59
2024/04/23 00:47:43;;;;;;;8.43;4.35;;;23.30;43.10;;;;;;6541983;26;80325;-58
2024/04/23 00:50:44;;;;;;;6.10;3.58;;;23.20;43.10;;;;;;6541023;26;80059;-59
2024/04/23 00:53:44;;;;;;;6.60;4.00;;;23.20;43.00;;;;;;6554137;26;80441;-58
2024/04/23 00:56:45;;;;;;;7.28;4.78;;;23.20;43.20;;;;;;6578083;26;79688;-66
2024/04/23 00:59:45;;;;;;;6.28;3.63;;;23.30;42.90;;;;;;6600167;26;81021;-66
2024/04/23 01:02:46;;;;;;;6.75;4.40;;;23.20;42.70;;;;;;6565004;26;80240;-63
2024/04/23 01:05:46;;;;;;;6.43;4.40;;;23.20;42.60;;;;;;6542612;26;80685;-64
2024/04/23 01:08:47;;;;;;;6.85;4.22;;;23.20;42.70;;;;;;6541720;26;82258;-67
2024/04/23 01:11:47;;;;;;;6.82;4.22;;;23.20;42.70;;;;;;6541806;26;79336;-67
2024/04/23 01:14:48;;;;;;;6.45;4.15;;;23.20;42.70;;;;;;6541597;26;78975;-59
2024/04/23 01:17:48;;;;;;;7.10;4.50;;;23.20;42.70;;;;;;6542508;26;78938;-59
2024/04/23 01:20:49;;;;;;;6.90;4.30;;;23.20;42.60;;;;;;6542345;26;79019;-59
2024/04/23 01:23:50;;;;;;;6.32;4.40;;;23.20;42.60;;;;;;6540169;26;82749;-59
2024/04/23 01:26:50;;;;;;;6.88;4.20;;;23.30;42.60;;;;;;6539614;26;79859;-59
2024/04/23 01:29:51;;;;;;;7.15;4.45;;;23.20;42.50;;;;;;6612786;26;80384;-59
2024/04/23 01:32:51;;;;;;;6.20;3.80;;;23.20;42.50;;;;;;6557779;26;78727;-59
2024/04/23 01:35:52;;;;;;;6.07;4.00;;;23.20;42.60;;;;;;6567967;26;79377;-59
2024/04/23 01:38:52;;;;;;;5.35;3.40;;;23.20;43.20;;;;;;6559566;26;78631;-59
2024/04/23 01:41:53;;;;;;;6.15;3.40;;;23.20;43.20;;;;;;6604171;26;79972;-59
2024/04/23 01:44:53;;;;;;;5.70;3.58;;;23.30;43.30;;;;;;6544781;26;78710;-58
2024/04/23 01:47:54;;;;;;;5.68;3.55;;;23.30;43.10;;;;;;6551420;26;82131;-59
2024/04/23 01:50:54;;;;;;;4.88;3.50;;;23.20;43.40;;;;;;6606777;26;84277;-65
2024/04/23 01:53:55;;;;;;;4.88;3.25;;;23.20;43.40;;;;;;6602969;26;80192;-64
2024/04/23 01:56:55;;;;;;;5.93;3.78;;;23.20;43.00;;;;;;6596277;26;80428;-65
2024/04/23 01:59:56;;;;;;;5.50;3.50;;;23.20;43.00;;;;;;6604816;26;78888;-66
2024/04/23 02:03:00;;;;;;;5.72;4.20;;;23.10;43.10;;;;;;6624400;26;81994;-67
2024/04/23 02:06:00;;;;;;;5.95;3.67;;;23.20;43.00;;;;;;6585303;26;78782;-68
2024/04/23 02:09:01;;;;;;;5.05;3.63;;;23.20;43.00;;;;;;6536463;26;80336;-58
2024/04/23 02:12:03;;;;;;;4.90;3.50;;;23.20;42.80;;;;;;6550097;26;79019;-57
2024/04/23 02:15:04;;;;;;;5.65;4.15;;;23.20;42.70;;;;;;6537782;26;79402;-57
2024/04/23 02:18:04;;;;;;;5.97;3.53;;;23.20;42.40;;;;;;6542938;26;78965;-59
2024/04/23 02:21:05;;;;;;;5.32;3.55;;;23.20;42.40;;;;;;6557637;26;80524;-57
2024/04/23 02:24:05;;;;;;;5.68;3.67;;;23.20;42.40;;;;;;6540537;26;79037;-59
2024/04/23 02:27:06;;;;;;;5.25;3.35;;;23.20;42.40;;;;;;6579784;26;79783;-64
2024/04/23 02:30:06;;;;;;;4.70;3.70;;;23.20;42.50;;;;;;6587154;26;84990;-65
2024/04/23 02:33:11;;;;;;;6.10;4.20;;;23.20;42.50;;;;;;6594676;26;80162;-66
2024/04/23 02:36:12;;;;;;;6.38;4.00;;;23.10;42.40;;;;;;6588943;26;78983;-66
2024/04/23 02:39:12;;;;;;;4.32;3.50;;;23.20;42.40;;;;;;6596969;26;86669;-64
2024/04/23 02:42:13;;;;;;;5.63;3.72;;;23.20;42.30;;;;;;6572466;26;81037;-66
2024/04/23 02:45:14;;;;;;;5.28;3.20;;;23.20;42.30;;;;;;6611746;26;79766;-59
2024/04/23 02:48:14;;;;;;;5.05;3.67;;;23.20;42.30;;;;;;6605792;26;79821;-60
2024/04/23 02:51:15;;;;;;;3.55;3.00;;;23.20;42.40;;;;;;6577807;26;80291;-60
2024/04/23 02:54:16;;;;;;;6.82;3.35;;;23.20;42.90;;;;;;6623339;26;79234;-59
2024/04/23 02:57:16;;;;;;;6.72;3.05;;;23.20;42.50;;;;;;6565328;26;79406;-59
2024/04/23 03:00:17;;;;;;;7.80;3.35;;;23.10;42.60;;;;;;6581861;26;80183;-59
2024/04/23 03:03:17;;;;;;;6.78;3.33;;;23.20;43.20;;;;;;6579390;26;80873;-65
2024/04/23 03:06:18;;;;;;;5.63;3.67;;;23.10;42.50;;;;;;6571310;26;81609;-62
2024/04/23 03:09:18;;;;;;;3.95;3.30;;;23.20;42.80;;;;;;6574427;26;80650;-61
2024/04/23 03:12:19;;;;;;;5.13;3.20;;;23.20;42.90;;;;;;6615277;26;79564;-61
2024/04/23 03:15:19;;;;;;;5.63;3.58;;;23.10;42.70;;;;;;6584097;26;79291;-61
2024/04/23 03:18:20;;;;;;;6.55;3.92;;;23.20;42.70;;;;;;6588640;26;80463;-62
2024/04/23 03:21:20;;;;;;;6.00;3.50;;;23.10;42.70;;;;;;6598843;26;84759;-61
2024/04/23 03:24:21;;;;;;;5.57;3.40;;;23.10;42.70;;;;;;6614519;26;79300;-60
2024/04/23 03:27:21;;;;;;;4.43;3.30;;;23.10;42.50;;;;;;6563995;26;79617;-59
2024/04/23 03:30:22;;;;;;;5.97;3.28;;;23.10;42.50;;;;;;6605773;26;78847;-58
2024/04/23 03:33:22;;;;;;;4.93;3.55;;;23.10;42.60;;;;;;6569285;26;79623;-59
2024/04/23 03:36:23;;;;;;;4.88;3.30;;;23.10;42.30;;;;;;6581336;26;79060;-60
2024/04/23 03:39:23;;;;;;;4.25;3.03;;;23.10;42.30;;;;;;6603489;26;79242;-59
2024/04/23 03:42:24;;;;;;;5.63;3.58;;;23.10;42.20;;;;;;6608247;26;80664;-61
2024/04/23 03:45:24;;;;;;;6.07;3.65;;;23.00;42.20;;;;;;6617655;26;86807;-63
2024/04/23 03:48:25;;;;;;;5.63;3.67;;;23.00;42.30;;;;;;6560902;26;79056;-61
2024/04/23 03:51:25;;;;;;;6.78;3.78;;;23.00;42.00;;;;;;6542566;26;79252;-61
2024/04/23 03:54:26;;;;;;;5.47;3.38;;;23.00;41.90;;;;;;6542576;26;81149;-61
2024/04/23 03:57:26;;;;;;;5.25;3.33;;;23.10;41.80;;;;;;6541421;26;80636;-61
2024/04/23 04:00:27;;;;;;;5.28;3.20;;;23.10;41.90;;;;;;6542579;26;79109;-60
2024/04/23 04:06:47;;;;;;;9.20;3.70;;;23.10;42.50;;;;;;6576627;26;79006;-61
2024/04/23 04:09:47;;;;;;;4.88;3.60;;;23.10;42.70;;;;;;6580281;26;83497;-58
2024/04/23 04:12:48;;;;;;;5.05;3.78;;;23.10;42.60;;;;;;6570612;26;80130;-62
2024/04/23 04:15:49;;;;;;;7.80;3.47;;;23.10;42.80;;;;;;6558296;26;79207;-62
2024/04/23 04:18:50;;;;;;;9.63;3.78;;;23.10;43.10;;;;;;6578375;26;79163;-59
2024/04/23 04:21:50;;;;;;;9.13;3.50;;;23.10;43.40;;;;;;6563553;26;79198;-66
2024/04/23 04:24:51;;;;;;;5.45;3.40;;;23.10;43.40;;;;;;6561196;26;79322;-63
2024/04/23 04:27:51;;;;;;;9.82;3.17;;;23.10;43.80;;;;;;6594403;26;80687;-64
2024/04/23 04:30:52;;;;;;;7.45;3.35;;;23.10;44.10;;;;;;6595051;26;79264;-62
2024/04/23 04:33:53;;;;;;;6.25;3.30;;;23.20;44.50;;;;;;6584103;26;79419;-65
2024/04/23 04:36:53;;;;;;;11.25;4.20;;;23.20;44.60;;;;;;6579666;26;78722;-67
2024/04/23 04:39:54;;;;;;;4.95;3.13;;;23.20;44.10;;;;;;6557518;26;79223;-67
2024/04/23 04:42:55;;;;;;;4.20;2.80;;;23.10;44.20;;;;;;6570217;26;80185;-65
2024/04/23 04:45:56;;;;;;;7.82;3.58;;;23.10;44.10;;;;;;6566301;26;80398;-64
2024/04/23 04:48:56;;;;;;;9.82;3.65;;;23.10;44.70;;;;;;6561248;26;82015;-62
2024/04/23 04:51:57;;;;;;;6.20;3.25;;;23.10;44.50;;;;;;6569195;26;78796;-67
2024/04/23 04:54:57;;;;;;;7.00;3.88;;;23.10;44.30;;;;;;6558514;26;79365;-58
2024/04/23 04:57:58;;;;;;;6.18;3.50;;;23.10;44.20;;;;;;6552767;26;79003;-51
2024/04/23 05:00:59;;;;;;;8.45;4.03;;;23.10;44.30;;;;;;6567479;26;80135;-56
2024/04/23 05:04:00;;;;;;;6.75;4.38;;;23.10;44.10;;;;;;6540650;26;81799;-60
2024/04/23 05:07:01;;;;;;;39.42;7.57;;;23.10;43.90;;;;;;6595786;26;78785;-52
2024/04/23 05:10:01;;;;;;;34.70;7.15;;;23.10;43.90;;;;;;6606502;26;79261;-57
2024/04/23 05:13:02;;;;;;;40.35;7.68;;;23.10;43.60;;;;;;6586517;26;79966;-59
2024/04/23 05:16:02;;;;;;;21.60;5.53;;;23.10;44.80;;;;;;6555167;26;81031;-59
2024/04/23 05:19:03;;;;;;;18.75;5.53;;;23.10;44.10;;;;;;6536115;26;78737;-56
2024/04/23 05:22:04;;;;;;;16.67;5.50;;;23.10;43.90;;;;;;6559443;26;79258;-59
2024/04/23 05:25:04;;;;;;;15.32;5.45;;;23.10;43.70;;;;;;6539472;26;80035;-60
2024/04/23 05:28:05;;;;;;;14.52;6.00;;;23.10;43.50;;;;;;6594378;26;79750;-59
2024/04/23 05:34:25;;;;;;;17.67;5.63;;;23.10;43.40;;;;;;6603423;26;79076;-58
2024/04/23 05:37:26;;;;;;;19.48;5.63;;;23.10;43.20;;;;;;6563687;26;83186;-59
2024/04/23 05:40:26;;;;;;;23.13;6.07;;;23.10;43.10;;;;;;6588525;26;80124;-59
2024/04/23 05:43:27;;;;;;;26.17;6.55;;;23.10;42.90;;;;;;6587728;26;80370;-58
2024/04/23 05:46:27;;;;;;;30.08;6.78;;;23.10;42.80;;;;;;6600794;26;78581;-59
2024/04/23 05:49:28;;;;;;;38.03;7.57;;;23.10;42.60;;;;;;6577700;26;80099;-59
2024/04/23 05:52:47;;;;;;;36.75;6.72;;;23.10;42.70;;;;;;6580215;26;79232;-59
2024/04/23 05:56:07;;;;;;;30.77;6.75;;;23.10;42.40;;;;;;6600733;26;79183;-58
2024/04/23 05:59:08;;;;;;;26.38;7.35;;;23.10;42.20;;;;;;6601702;26;78933;-59
2024/04/23 06:02:08;;;;;;;19.95;7.00;;;23.10;42.20;;;;;;6580516;26;79017;-59
2024/04/23 06:05:09;;;;;;;21.75;6.55;;;23.10;42.00;;;;;;6610446;26;79940;-59
2024/04/23 06:08:09;;;;;;;25.85;7.10;;;23.10;42.00;;;;;;6595068;26;80105;-65
2024/04/23 06:11:10;;;;;;;19.08;6.57;;;23.10;41.80;;;;;;6596195;26;78716;-66
2024/04/23 06:14:11;;;;;;;24.25;7.45;;;23.10;41.70;;;;;;6593856;26;79018;-66
2024/04/23 06:17:11;;;;;;;25.30;6.50;;;23.10;41.60;;;;;;6560675;26;79453;-65
2024/04/23 06:20:14;;;;;;;32.00;8.77;;;23.20;41.60;;;;;;6597518;26;79052;-65
2024/04/23 06:23:15;;;;;;;27.83;7.72;;;23.10;41.50;;;;;;6592913;26;78841;-66
2024/04/23 06:26:17;;;;;;;34.33;8.60;;;23.20;41.30;;;;;;6554635;26;79779;-59
2024/04/23 06:29:17;;;;;;;25.05;7.20;;;23.20;41.20;;;;;;6599448;26;79023;-59
2024/04/23 06:32:18;;;;;;;28.23;7.47;;;23.20;41.00;;;;;;6582722;26;78703;-57
2024/04/23 06:35:19;;;;;;;21.30;6.93;;;23.20;40.90;;;;;;6624444;26;81758;-58
2024/04/23 06:38:19;;;;;;;19.92;7.07;;;23.20;40.90;;;;;;6588681;26;79188;-58
2024/04/23 06:41:20;;;;;;;29.88;7.25;;;23.20;40.80;;;;;;6581743;26;78950;-58
2024/04/23 06:44:20;;;;;;;24.30;7.60;;;23.20;40.80;;;;;;6592800;26;79055;-59
2024/04/23 06:47:21;;;;;;;26.35;7.18;;;23.30;40.80;;;;;;6566577;26;80572;-58
2024/04/23 06:50:21;;;;;;;28.20;6.72;;;23.20;40.70;;;;;;6545287;26;87445;-58
2024/04/23 06:53:22;;;;;;;23.60;6.55;;;23.30;40.60;;;;;;6562933;26;83198;-59
2024/04/23 06:56:22;;;;;;;18.73;7.00;;;23.30;40.50;;;;;;6558051;26;79204;-57
2024/04/23 06:59:23;;;;;;;24.90;6.93;;;23.30;40.90;;;;;;6554742;26;79009;-55
2024/04/23 07:02:24;;;;;;;21.45;6.68;;;23.40;40.90;;;;;;6586516;26;79152;-57
2024/04/23 07:05:24;;;;;;;23.38;7.07;;;23.40;40.90;;;;;;6572356;26;79190;-65
2024/04/23 07:08:25;;;;;;;18.55;7.43;;;23.40;40.70;;;;;;6567688;26;79109;-67
2024/04/23 07:11:25;;;;;;;18.63;6.07;;;23.50;40.60;;;;;;6567277;26;79040;-65
2024/04/23 07:14:26;;;;;;;15.57;5.63;;;23.50;40.50;;;;;;6546237;26;84301;-66
2024/04/23 07:17:26;;;;;;;15.90;5.90;;;23.50;40.40;;;;;;6589655;26;80528;-66
2024/04/23 07:20:27;;;;;;;17.38;6.25;;;23.50;40.40;;;;;;6581494;26;79247;-72
2024/04/23 07:23:27;;;;;;;14.93;5.50;;;23.50;40.40;;;;;;6541348;26;82519;-62
2024/04/23 07:26:28;;;;;;;13.35;5.68;;;23.50;40.70;;;;;;6559292;26;79004;-59
2024/04/23 07:29:29;;;;;;;10.57;5.65;;;23.60;40.90;;;;;;6578695;26;79021;-62
2024/04/23 07:32:29;;;;;;;9.80;4.85;;;23.60;41.40;;;;;;6577903;26;85915;-60
2024/04/23 07:35:30;;;;;;;13.63;5.63;;;23.60;41.50;;;;;;6580638;26;79470;-60
2024/04/23 07:38:30;;;;;;;15.20;6.28;;;23.60;41.30;;;;;;6582714;26;78942;-61
2024/04/23 07:41:31;;;;;;;13.00;5.70;;;23.60;41.20;;;;;;6580321;26;79146;-64
2024/04/23 07:44:31;;;;;;;16.42;5.50;;;23.60;41.20;;;;;;6597297;26;78990;-64
2024/04/23 07:47:35;;;;;;;11.13;5.70;;;23.60;41.10;;;;;;6622537;26;82621;-64
2024/04/23 07:50:36;;;;;;;10.85;5.32;;;23.60;41.10;;;;;;6598662;26;83665;-64
2024/04/23 07:53:37;;;;;;;12.18;5.50;;;23.70;41.10;;;;;;6614458;26;81511;-65
2024/04/23 07:56:37;;;;;;;8.63;4.80;;;23.70;41.00;;;;;;6584694;26;79214;-65
2024/04/23 07:59:37;;;;;;;9.10;5.03;;;23.70;40.90;;;;;;6623765;26;82544;-58
2024/04/23 08:02:38;;;;;;;10.63;5.47;;;23.70;40.80;;;;;;6601820;26;79305;-58
2024/04/23 08:05:39;;;;;;;8.73;5.22;;;23.70;40.80;;;;;;6582290;26;79080;-56
2024/04/23 08:08:39;;;;;;;8.88;4.72;;;23.70;40.90;;;;;;6591948;26;78795;-57
2024/04/23 08:11:41;;;;;;;11.40;5.25;;;23.70;41.00;;;;;;6594902;26;81947;-55
2024/04/23 08:14:42;;;;;;;12.73;5.50;;;23.70;41.00;;;;;;6588394;26;80979;-56
2024/04/23 08:17:42;;;;;;;8.35;4.85;;;23.70;41.20;;;;;;6547329;26;86156;-55
2024/04/23 08:20:43;;;;;;;18.45;5.65;;;23.70;41.50;;;;;;6574216;26;86276;-56
2024/04/23 08:23:43;;;;;;;59.55;25.58;;;23.80;41.50;;;;;;6569459;26;78811;-56
2024/04/23 08:26:44;;;;;;;80.93;35.45;;;23.80;41.70;;;;;;6563150;26;81661;-56
2024/04/23 08:29:44;;;;;;;105.35;47.67;;;23.80;41.80;;;;;;6561524;26;82176;-56
2024/04/23 08:32:45;;;;;;;198.70;86.97;;;23.80;41.60;;;;;;6568025;26;81957;-57
2024/04/23 08:35:45;;;;;;;175.00;83.03;;;23.90;41.80;;;;;;6589953;26;81255;-64
2024/04/23 08:38:46;;;;;;;150.25;65.13;;;23.90;41.90;;;;;;6577609;26;81278;-66
2024/04/23 08:41:46;;;;;;;133.98;60.00;;;23.90;42.00;;;;;;6568690;26;82650;-64
2024/04/23 08:44:51;;;;;;;120.70;54.35;;;23.90;41.90;;;;;;6593618;26;81700;-65
2024/04/23 08:47:51;;;;;;;106.88;47.60;;;23.90;41.90;;;;;;6585344;26;81324;-66
2024/04/23 08:50:52;;;;;;;95.35;43.70;;;24.00;42.00;;;;;;6607656;26;81614;-66
2024/04/23 08:53:52;;;;;;;82.47;41.60;;;24.00;41.90;;;;;;6586484;26;81531;-65
2024/04/23 08:56:53;;;;;;;80.78;37.25;;;24.00;42.10;;;;;;6580967;26;81629;-64
2024/04/23 08:59:53;;;;;;;62.72;30.40;;;24.00;42.10;;;;;;6603528;26;83331;-63
2024/04/23 09:02:54;;;;;;;59.28;29.17;;;24.00;42.30;;;;;;6608988;26;88092;-64
2024/04/23 09:05:54;;;;;;;58.15;27.35;;;24.00;42.40;;;;;;6592147;26;81653;-64
2024/04/23 09:08:57;;;;;;;53.90;26.75;;;24.00;42.40;;;;;;6574218;26;81318;-62
2024/04/23 09:12:00;;;;;;;51.60;23.95;;;24.10;42.40;;;;;;6586669;26;90354;-65
2024/04/23 09:15:01;;;;;;;54.40;24.05;;;24.10;42.40;;;;;;6567068;26;82763;-66
2024/04/23 09:18:02;;;;;;;47.65;22.77;;;24.10;42.50;;;;;;6537889;26;81718;-64
2024/04/23 09:21:03;;;;;;;40.58;20.42;;;24.00;42.50;;;;;;6540137;26;81587;-63
2024/04/23 09:24:03;;;;;;;43.70;20.15;;;24.10;42.40;;;;;;6562766;26;82693;-65
2024/04/23 09:27:04;;;;;;;37.33;18.30;;;24.10;42.60;;;;;;6537787;26;82824;-67
2024/04/23 09:30:05;;;;;;;35.40;16.05;;;24.10;42.50;;;;;;6606051;26;81588;-61
2024/04/23 09:33:05;;;;;;;33.30;16.77;;;24.10;42.80;;;;;;6571823;26;84053;-62
2024/04/23 09:36:07;;;;;;;30.83;15.43;;;24.10;42.50;;;;;;6570452;26;81531;-61
2024/04/23 09:39:08;;;;;;;29.55;15.30;;;24.10;42.50;;;;;;6549534;26;82239;-60
2024/04/23 09:42:08;;;;;;;29.10;14.13;;;24.10;42.40;;;;;;6571567;26;85170;-61
2024/04/23 09:45:09;;;;;;;23.40;11.35;;;24.10;42.30;;;;;;6554263;26;82553;-61
2024/04/23 09:48:09;;;;;;;22.75;11.77;;;24.10;42.70;;;;;;6550836;26;82937;-67
2024/04/23 09:51:10;;;;;;;26.13;11.60;;;24.10;42.80;;;;;;6544607;26;83122;-68
2024/04/23 09:54:10;;;;;;;20.77;11.48;;;24.10;42.70;;;;;;6559145;26;82099;-60
2024/04/23 09:57:11;;;;;;;19.88;10.55;;;24.10;42.80;;;;;;6559757;26;82608;-67
2024/04/23 10:00:12;;;;;;;19.70;10.80;;;24.10;43.00;;;;;;6554096;26;85426;-66
2024/04/23 10:03:13;;;;;;;17.58;10.35;;;24.20;43.00;;;;;;6544385;26;81720;-64
2024/04/23 10:06:13;;;;;;;23.13;10.63;;;24.20;43.10;;;;;;6552215;26;85929;-68
2024/04/23 10:09:14;;;;;;;20.95;10.70;;;24.20;43.30;;;;;;6547299;26;83045;-67
2024/04/23 10:12:14;;;;;;;24.02;10.80;;;24.20;43.40;;;;;;6584248;26;83007;-66
2024/04/23 10:15:15;;;;;;;18.95;9.77;;;24.20;44.20;;;;;;6542821;26;82928;-62
2024/04/23 10:18:19;;;;;;;15.98;8.77;;;24.20;44.10;;;;;;6604700;26;81554;-66
2024/04/23 10:21:20;;;;;;;21.30;10.18;;;24.20;44.60;;;;;;6577319;26;78788;-69
2024/04/23 10:24:20;;;;;;;19.65;10.23;;;24.30;44.70;;;;;;6587475;26;81754;-60
2024/04/23 10:27:23;;;;;;;20.70;10.23;;;24.30;44.80;;;;;;6575483;26;85544;-66
2024/04/23 10:30:24;;;;;;;21.42;10.38;;;24.20;44.70;;;;;;6560053;26;84520;-67
2024/04/23 10:33:30;;;;;;;19.23;9.75;;;24.30;44.80;;;;;;6539833;26;81989;-66
2024/04/23 10:36:31;;;;;;;;;;;24.30;44.80;;;;;;6546220;26;81316;-62
2024/04/23 10:39:31;;;;;;;19.65;9.95;;;24.30;45.00;;;;;;6574546;26;77537;-63
2024/04/23 10:42:32;;;;;;;14.88;9.82;;;24.30;45.10;;;;;;6564645;26;79193;-64
2024/04/23 10:45:32;;;;;;;21.58;9.68;;;24.40;44.90;;;;;;6567899;26;80370;-63
2024/04/23 10:48:36;;;;;;;17.70;8.32;;;24.30;44.80;;;;;;6542374;26;80354;-64
2024/04/23 10:51:36;;;;;;;21.98;8.85;;;24.40;44.70;;;;;;6544533;26;79004;-65
2024/04/23 10:54:37;;;;;;;15.98;7.97;;;24.40;44.60;;;;;;6544263;26;79065;-64
2024/04/23 10:57:37;;;;;;;12.82;7.90;;;24.30;44.40;;;;;;6570954;26;83475;-65
2024/04/23 11:00:38;;;;;;;14.55;8.02;;;24.40;44.30;;;;;;6541011;26;79112;-64
2024/04/23 11:03:38;;;;;;;15.30;8.15;;;24.40;44.10;;;;;;6543685;26;78982;-59
2024/04/23 11:06:40;;;;;;;14.90;7.90;;;24.40;44.00;;;;;;6543261;26;80169;-59
2024/04/23 11:09:41;;;;;;;13.45;8.13;;;24.40;44.00;;;;;;6542611;26;79003;-58
2024/04/23 11:12:42;;;;;;;17.25;7.47;;;24.40;44.00;;;;;;6584438;26;82039;-59
2024/04/23 11:15:42;;;;;;;19.85;7.95;;;24.40;44.00;;;;;;6541562;26;80936;-59
2024/04/23 11:18:43;;;;;;;11.40;7.22;;;24.40;44.00;;;;;;6543497;26;80384;-59
2024/04/23 11:21:43;;;;;;;12.45;7.03;;;24.40;43.90;;;;;;6561974;26;81091;-59
2024/04/23 11:24:44;;;;;;;14.32;7.45;;;24.40;43.90;;;;;;6546168;26;83962;-59
2024/04/23 11:27:45;;;;;;;12.32;6.93;;;24.50;43.90;;;;;;6541066;26;79452;-59
2024/04/23 11:30:45;;;;;;;11.65;6.70;;;24.50;43.80;;;;;;6592298;26;83529;-59
2024/04/23 11:33:46;;;;;;;15.75;7.53;;;24.50;43.70;;;;;;6554727;26;78889;-59
2024/04/23 11:36:46;;;;;;;9.75;6.70;;;24.50;43.70;;;;;;6542038;26;79055;-62
2024/04/23 11:39:47;;;;;;;11.05;6.75;;;24.50;43.90;;;;;;6558473;26;79269;-62
2024/04/23 11:42:47;;;;;;;9.85;6.60;;;24.50;43.70;;;;;;6559908;26;83568;-61
2024/04/23 11:45:48;;;;;;;13.93;6.68;;;24.50;43.60;;;;;;6594888;26;79310;-63
2024/04/23 11:48:48;;;;;;;11.57;6.00;;;24.50;43.60;;;;;;6572267;26;79863;-62
2024/04/23 11:51:54;;;;;;;10.30;6.07;;;24.50;43.60;;;;;;6580014;26;80212;-60
2024/04/23 11:54:54;;;;;;;11.52;6.25;;;24.50;43.80;;;;;;6563255;26;78877;-60
2024/04/23 11:57:55;;;;;;;12.77;6.30;;;24.50;44.10;;;;;;6541811;26;80177;-63
2024/04/23 12:00:55;;;;;;;11.32;6.93;;;24.50;44.10;;;;;;6571002;26;81046;-65
2024/04/23 12:03:56;;;;;;;12.98;6.18;;;24.40;44.00;;;;;;6586669;26;86423;-65
2024/04/23 12:06:56;;;;;;;12.13;6.20;;;24.40;43.90;;;;;;6583718;26;79168;-65
2024/04/23 12:10:03;;;;;;;11.75;5.75;;;24.50;43.70;;;;;;6557976;26;79130;-64
2024/04/23 12:13:04;;;;;;;8.77;6.10;;;24.50;43.70;;;;;;6576655;26;80035;-66
2024/04/23 12:16:04;;;;;;;8.95;5.97;;;24.50;43.70;;;;;;6563542;26;79641;-65
2024/04/23 12:19:05;;;;;;;10.00;5.70;;;24.50;43.70;;;;;;6602827;26;79698;-65
2024/04/23 12:22:05;;;;;;;15.25;5.93;;;24.50;44.10;;;;;;6573271;26;84583;-64
2024/04/23 12:25:06;;;;;;;9.38;4.88;;;24.50;43.90;;;;;;6584778;26;86830;-62
2024/04/23 12:28:06;;;;;;;7.50;4.60;;;24.50;43.80;;;;;;6568444;26;80817;-64
2024/04/23 12:31:07;;;;;;;8.38;5.32;;;24.60;43.80;;;;;;6569773;26;80098;-63
2024/04/23 12:34:07;;;;;;;11.35;5.18;;;24.60;43.80;;;;;;6582368;26;80949;-65
2024/04/23 12:37:08;;;;;;;11.15;5.68;;;24.60;43.90;;;;;;6569075;26;79455;-64
2024/04/23 12:40:08;;;;;;;10.52;4.95;;;24.60;43.80;;;;;;6588439;26;78797;-63
2024/04/23 12:43:09;;;;;;;8.25;4.95;;;24.60;43.80;;;;;;6589617;26;79209;-62
2024/04/23 12:46:10;;;;;;;7.22;4.40;;;24.60;43.80;;;;;;6606509;26;80563;-63
2024/04/23 12:49:10;;;;;;;7.78;5.18;;;24.50;43.70;;;;;;6586922;26;78772;-63
2024/04/23 12:52:11;;;;;;;9.68;4.88;;;24.50;43.80;;;;;;6583185;26;79081;-65
2024/04/23 12:55:11;;;;;;;8.70;5.05;;;24.50;44.00;;;;;;6574636;26;78855;-63
2024/04/23 12:58:12;;;;;;;8.73;4.75;;;24.50;44.10;;;;;;6581120;26;79158;-65
2024/04/23 13:01:12;;;;;;;6.57;4.32;;;24.50;44.40;;;;;;6588581;26;85202;-64
2024/04/23 13:04:13;;;;;;;6.93;4.55;;;24.50;44.10;;;;;;6581728;26;83413;-58
2024/04/23 13:07:13;;;;;;;11.23;4.72;;;24.40;44.40;;;;;;6586623;26;80374;-64
2024/04/23 13:10:14;;;;;;;13.45;5.03;;;24.40;44.20;;;;;;6572599;26;78989;-61
2024/04/23 13:13:14;;;;;;;9.07;4.80;;;24.40;44.20;;;;;;6556321;26;78722;-62
2024/04/23 13:16:15;;;;;;;13.48;4.43;;;24.40;44.40;;;;;;6547098;26;79292;-62
2024/04/23 13:19:16;;;;;;;98.65;49.85;;;24.40;44.50;;;;;;6557336;26;78980;-60
2024/04/23 13:22:16;;;;;;;107.00;52.38;;;24.40;44.80;;;;;;6543270;26;81480;-59
2024/04/23 13:25:17;;;;;;;128.57;64.43;;;24.40;44.90;;;;;;6561696;26;82554;-61
2024/04/23 13:28:17;;;;;;;153.30;69.68;;;24.50;45.00;;;;;;6561316;26;82041;-65
2024/04/23 13:31:18;;;;;;;106.45;52.83;;;24.50;45.20;;;;;;6540600;26;82613;-53
2024/04/23 13:34:19;;;;;;;103.78;48.60;;;24.60;45.30;;;;;;6549781;26;81531;-53
2024/04/23 13:37:19;;;;;;;81.75;41.78;;;24.60;45.20;;;;;;6562429;26;81809;-51
2024/04/23 13:40:20;;;;;;;79.55;39.33;;;24.60;44.80;;;;;;6540651;26;81579;-53
2024/04/23 13:43:21;;;;;;;72.93;35.58;;;24.70;45.90;;;;;;6538623;26;85019;-52
2024/04/23 13:46:21;;;;;;;65.18;28.35;;;24.70;45.30;;;;;;6577889;26;82616;-54
2024/04/23 13:49:22;;;;;;;54.45;27.52;;;24.70;45.70;;;;;;6584884;26;84236;-70
2024/04/23 13:52:22;;;;;;;48.80;26.23;;;24.70;45.90;;;;;;6585123;26;85587;-65
2024/04/23 13:55:23;;;;;;;49.58;24.13;;;24.70;46.60;;;;;;6565897;26;82980;-70
2024/04/23 13:58:24;;;;;;;50.75;22.25;;;24.70;46.50;;;;;;6582722;26;82163;-70
2024/04/23 14:01:24;;;;;;;42.80;20.25;;;24.70;46.50;;;;;;6566112;26;83336;-70
2024/04/23 14:04:25;;;;;;;38.30;18.17;;;24.70;46.40;;;;;;6583981;26;82600;-68
2024/04/23 14:07:26;;;;;;;33.30;16.83;;;24.70;46.30;;;;;;6574326;26;87384;-53
2024/04/23 14:10:26;;;;;;;34.42;15.55;;;24.70;46.30;;;;;;6562088;26;82991;-52
2024/04/23 14:13:27;;;;;;;39.08;15.20;;;24.70;46.50;;;;;;6583503;26;81927;-52
2024/04/23 14:16:28;;;;;;;37.92;15.15;;;24.60;46.50;;;;;;6576796;26;87004;-52
2024/04/23 14:19:33;;;;;;;37.95;14.30;;;24.60;46.30;;;;;;6554652;26;82582;-49
2024/04/23 14:22:34;;;;;;;27.55;13.43;;;24.60;46.50;;;;;;6579466;26;81786;-57
2024/04/23 14:25:34;;;;;;;27.52;11.65;;;24.60;46.70;;;;;;6558816;26;81660;-72
2024/04/23 14:28:36;;;;;;;29.23;11.68;;;24.60;46.60;;;;;;6573594;26;82038;-70
2024/04/23 14:31:37;;;;;;;24.00;11.98;;;24.60;46.60;;;;;;6599537;26;83605;-67
2024/04/23 14:34:37;;;;;;;28.67;10.15;;;24.60;46.60;;;;;;6569730;26;88994;-67
2024/04/23 14:37:39;;;;;;;37.22;10.13;;;24.60;46.60;;;;;;6587462;26;82538;-70
2024/04/23 14:40:40;;;;;;;36.03;9.95;;;24.60;46.80;;;;;;6577562;26;81804;-68
2024/04/23 14:43:40;;;;;;;26.15;9.88;;;24.50;46.80;;;;;;6592696;26;81547;-70
2024/04/23 14:46:41;;;;;;;21.48;8.90;;;24.60;46.80;;;;;;6566554;26;79120;-70
2024/04/23 14:49:42;;;;;;;26.77;8.70;;;24.60;46.90;;;;;;6566989;26;79707;-63
2024/04/23 14:52:42;;;;;;;24.20;8.95;;;24.60;46.80;;;;;;6561212;26;80345;-66
2024/04/23 14:55:43;;;;;;;20.40;7.93;;;24.60;46.90;;;;;;6580160;26;83498;-69
2024/04/23 14:58:43;;;;;;;24.40;8.77;;;24.60;46.90;;;;;;6565592;26;84971;-70
2024/04/23 15:01:44;;;;;;;23.67;8.05;;;24.60;46.80;;;;;;6570707;26;79015;-71
2024/04/23 15:04:44;;;;;;;24.10;7.97;;;24.50;46.70;;;;;;6566687;26;81388;-67
2024/04/23 15:07:45;;;;;;;20.20;7.05;;;24.50;46.70;;;;;;6557458;26;78906;-65
2024/04/23 15:10:45;;;;;;;18.55;7.45;;;24.60;46.70;;;;;;6564971;26;79409;-61
2024/04/23 15:13:47;;;;;;;23.45;6.72;;;24.50;46.70;;;;;;6570937;26;81957;-62
2024/04/23 15:16:47;;;;;;;31.58;7.07;;;24.50;46.80;;;;;;6536794;26;79841;-68
2024/04/23 15:19:52;;;;;;;19.55;7.60;;;24.50;46.70;;;;;;6565837;26;80165;-51
2024/04/23 15:22:53;;;;;;;15.53;6.87;;;24.50;46.60;;;;;;6575085;26;79954;-56
2024/04/23 15:25:53;;;;;;;22.33;7.70;;;24.50;46.70;;;;;;6560516;26;79174;-56
2024/04/23 15:28:54;;;;;;;18.50;6.72;;;24.40;46.60;;;;;;6581912;26;79296;-56
2024/04/23 15:31:54;;;;;;;22.83;7.28;;;24.50;46.30;;;;;;6591703;26;80469;-52
2024/04/23 15:34:55;;;;;;;27.90;7.13;;;24.50;46.20;;;;;;6580625;26;78744;-56
2024/04/23 15:37:55;;;;;;;16.13;6.22;;;24.50;46.10;;;;;;6589076;26;80217;-60